Time;durP1;ratioP1;P1;durP2;ratioP2;P2;SDS_P1;SDS_P2;PMS_P1;PMS_P2;Temp;Humidity;BMP_temperature;BMP_pressure;BME280_temperature;BME280_humidity;BME280_pressure;Samples;Min_cycle;Max_cycle;Signal;HPM_P1;HPM_P2
2022/03/09 00:01:26;;;;;;;85.65;35.70;;;;;;;;;;4972087;28;100089;-71
2022/03/09 00:03:53;;;;;;;81.60;34.03;;;;;;;;;;4972414;28;100519;-71
2022/03/09 00:06:23;;;;;;;74.07;31.73;;;;;;;;;;4955430;28;100518;-72
2022/03/09 00:08:49;;;;;;;92.82;35.75;;;;;;;;;;4954928;28;100180;-72
2022/03/09 00:11:16;;;;;;;62.15;27.83;;;;;;;;;;4972134;28;99984;-71
2022/03/09 00:13:43;;;;;;;88.28;34.55;;;;;;;;;;4971445;28;100264;-72
2022/03/09 00:16:10;;;;;;;89.38;32.65;;;;;;;;;;4972817;28;101068;-71
2022/03/09 00:18:38;;;;;;;89.35;34.53;;;;;;;;;;4972833;28;100122;-71
2022/03/09 00:21:05;;;;;;;84.20;33.83;;;;;;;;;;4972209;28;100077;-71
2022/03/09 00:23:32;;;;;;;68.03;29.10;;;;;;;;;;4971437;28;100145;-72
2022/03/09 00:25:58;;;;;;;74.13;30.25;;;;;;;;;;4970490;28;100556;-71
2022/03/09 00:28:25;;;;;;;86.90;34.92;;;;;;;;;;4970028;28;100135;-71
2022/03/09 00:30:52;;;;;;;76.43;31.40;;;;;;;;;;4954247;28;100266;-71
2022/03/09 00:33:19;;;;;;;66.35;27.40;;;;;;;;;;4970980;28;101490;-71
2022/03/09 00:35:46;;;;;;;64.75;27.17;;;;;;;;;;4970313;28;100578;-71
2022/03/09 00:38:13;;;;;;;74.82;29.10;;;;;;;;;;4954303;28;102851;-71
2022/03/09 00:40:39;;;;;;;81.13;29.50;;;;;;;;;;4970645;28;101357;-71
2022/03/09 00:43:06;;;;;;;71.30;27.13;;;;;;;;;;4969959;28;100242;-71
2022/03/09 00:45:35;;;;;;;72.40;29.98;;;;;;;;;;4971120;28;100693;-71
2022/03/09 00:48:02;;;;;;;67.63;28.80;;;;;;;;;;4970710;28;103181;-71
2022/03/09 00:50:28;;;;;;;86.32;31.95;;;;;;;;;;4969758;28;100138;-71
2022/03/09 00:52:55;;;;;;;69.95;29.15;;;;;;;;;;4986348;28;100234;-75
2022/03/09 00:55:23;;;;;;;75.07;29.40;;;;;;;;;;4953722;28;101067;-71
2022/03/09 00:57:50;;;;;;;79.35;32.65;;;;;;;;;;4969912;28;100347;-71
2022/03/09 01:00:16;;;;;;;91.72;34.22;;;;;;;;;;4970017;28;100153;-71
2022/03/09 01:02:44;;;;;;;78.95;31.38;;;;;;;;;;4969243;28;101744;-72
2022/03/09 01:05:11;;;;;;;70.38;29.05;;;;;;;;;;4969357;28;100579;-71
2022/03/09 01:07:41;;;;;;;66.78;29.35;;;;;;;;;;4969100;28;100210;-71
2022/03/09 01:10:08;;;;;;;88.43;30.88;;;;;;;;;;4936161;28;100255;-72
2022/03/09 01:12:35;;;;;;;87.55;36.10;;;;;;;;;;4969048;28;100236;-71
2022/03/09 01:15:02;;;;;;;88.82;37.25;;;;;;;;;;4968927;28;102320;-71
2022/03/09 01:17:29;;;;;;;74.45;31.67;;;;;;;;;;4969497;28;100195;-76
2022/03/09 01:19:56;;;;;;;64.25;26.35;;;;;;;;;;4969706;28;100171;-71
2022/03/09 01:22:22;;;;;;;69.97;30.55;;;;;;;;;;4953047;28;100517;-71
2022/03/09 01:24:49;;;;;;;85.90;32.03;;;;;;;;;;4970688;28;100572;-72
2022/03/09 01:27:16;;;;;;;80.57;32.45;;;;;;;;;;4969341;28;100093;-72
2022/03/09 01:29:43;;;;;;;102.88;38.85;;;;;;;;;;4969784;28;100222;-72
2022/03/09 01:32:10;;;;;;;74.88;28.85;;;;;;;;;;4985675;28;100224;-72
2022/03/09 01:34:37;;;;;;;94.82;33.42;;;;;;;;;;4968954;28;100718;-72
2022/03/09 01:37:04;;;;;;;99.15;39.45;;;;;;;;;;4968871;28;100050;-72
2022/03/09 01:39:30;;;;;;;77.72;32.10;;;;;;;;;;4936975;28;100079;-72
2022/03/09 01:41:57;;;;;;;78.90;30.85;;;;;;;;;;4967894;28;102567;-71
2022/03/09 01:44:24;;;;;;;83.47;32.88;;;;;;;;;;4951857;28;101835;-72
2022/03/09 01:46:53;;;;;;;68.00;28.48;;;;;;;;;;4969118;28;100673;-72
2022/03/09 01:49:20;;;;;;;64.53;26.58;;;;;;;;;;4969328;28;100191;-71
2022/03/09 01:51:48;;;;;;;67.57;27.10;;;;;;;;;;4967691;28;101429;-71
2022/03/09 01:54:15;;;;;;;63.08;24.20;;;;;;;;;;4969275;28;100843;-72
2022/03/09 01:56:42;;;;;;;74.32;31.52;;;;;;;;;;4952928;28;100095;-72
2022/03/09 01:59:10;;;;;;;74.07;28.98;;;;;;;;;;4952840;28;100102;-73
2022/03/09 02:01:37;;;;;;;61.65;26.15;;;;;;;;;;4952003;28;100708;-73
2022/03/09 02:04:05;;;;;;;84.15;31.67;;;;;;;;;;4969087;28;100630;-72
2022/03/09 02:06:32;;;;;;;69.72;28.40;;;;;;;;;;4970270;28;100101;-73
2022/03/09 02:11:45;;;;;;;89.75;32.30;;;;;;;;;;4967530;28;100152;-72
2022/03/09 02:14:28;;;;;;;66.25;27.30;;;;;;;;;;4968658;28;100531;-73
2022/03/09 02:16:56;;;;;;;66.07;24.85;;;;;;;;;;4968813;28;100097;-73
2022/03/09 02:19:23;;;;;;;57.75;24.73;;;;;;;;;;4951658;28;100613;-72
2022/03/09 02:22:25;;;;;;;62.92;25.30;;;;;;;;;;4967922;28;100330;-71
2022/03/09 02:25:37;;;;;;;49.78;20.50;;;;;;;;;;4970392;28;102069;-71
2022/03/09 02:28:15;;;;;;;60.67;26.42;;;;;;;;;;4967917;28;100508;-71
2022/03/09 02:31:10;;;;;;;52.97;23.35;;;;;;;;;;4967963;28;100289;-72
2022/03/09 02:34:13;;;;;;;73.88;28.38;;;;;;;;;;4968426;28;101026;-71
2022/03/09 02:37:21;;;;;;;59.67;24.25;;;;;;;;;;4968973;28;100644;-71
2022/03/09 02:40:18;;;;;;;46.72;20.88;;;;;;;;;;4967998;28;101168;-72
2022/03/09 02:43:09;;;;;;;64.07;25.05;;;;;;;;;;4955544;28;100279;-71
2022/03/09 02:45:50;;;;;;;62.10;28.23;;;;;;;;;;4968609;28;100310;-72
2022/03/09 02:48:16;;;;;;;72.18;28.90;;;;;;;;;;4969501;28;101534;-72
2022/03/09 02:50:43;;;;;;;71.07;28.65;;;;;;;;;;4968008;28;100109;-72
2022/03/09 02:53:10;;;;;;;63.78;26.38;;;;;;;;;;4968210;28;101988;-72
2022/03/09 02:55:38;;;;;;;60.65;27.08;;;;;;;;;;4968679;28;100422;-72
2022/03/09 02:58:05;;;;;;;64.30;25.17;;;;;;;;;;4936192;28;100902;-72
2022/03/09 03:00:32;;;;;;;60.40;25.20;;;;;;;;;;4968950;28;100135;-73
2022/03/09 03:02:59;;;;;;;73.65;30.70;;;;;;;;;;4952696;28;100127;-72
2022/03/09 03:05:26;;;;;;;65.95;28.17;;;;;;;;;;4967402;28;100459;-72
2022/03/09 03:07:53;;;;;;;58.85;25.38;;;;;;;;;;4968071;28;103606;-72
2022/03/09 03:10:20;;;;;;;65.15;28.65;;;;;;;;;;4969565;28;100163;-72
2022/03/09 03:12:47;;;;;;;76.18;30.98;;;;;;;;;;4968364;28;100043;-72
2022/03/09 03:15:14;;;;;;;70.05;30.05;;;;;;;;;;4968344;28;100282;-73
2022/03/09 03:17:41;;;;;;;78.85;32.10;;;;;;;;;;4968413;28;100560;-72
2022/03/09 03:20:08;;;;;;;65.68;27.77;;;;;;;;;;4984666;28;100108;-72
2022/03/09 03:22:35;;;;;;;70.18;27.90;;;;;;;;;;4968599;28;100120;-72
2022/03/09 03:25:02;;;;;;;64.82;26.40;;;;;;;;;;4968161;28;100431;-72
2022/03/09 03:27:28;;;;;;;60.30;25.33;;;;;;;;;;4951972;28;100593;-72
2022/03/09 03:29:55;;;;;;;60.88;24.77;;;;;;;;;;4969361;28;100047;-72
2022/03/09 03:32:22;;;;;;;82.00;30.23;;;;;;;;;;4968996;28;101205;-71
2022/03/09 03:34:50;;;;;;;69.00;27.33;;;;;;;;;;4969372;28;100547;-71
2022/03/09 03:37:17;;;;;;;62.53;26.92;;;;;;;;;;4969734;28;100583;-71
2022/03/09 03:39:44;;;;;;;80.82;27.63;;;;;;;;;;4969403;28;100072;-72
2022/03/09 03:42:13;;;;;;;59.75;23.52;;;;;;;;;;4968508;28;99873;-71
2022/03/09 03:44:40;;;;;;;55.28;25.42;;;;;;;;;;4968673;28;100205;-72
2022/03/09 03:47:07;;;;;;;61.33;25.90;;;;;;;;;;4967977;28;101644;-71
2022/03/09 03:49:34;;;;;;;56.90;25.38;;;;;;;;;;4969520;28;100198;-71
2022/03/09 03:52:01;;;;;;;68.20;28.45;;;;;;;;;;4969634;28;100192;-71
2022/03/09 03:54:28;;;;;;;56.30;22.23;;;;;;;;;;4969227;28;100441;-71
2022/03/09 03:56:57;;;;;;;66.38;25.92;;;;;;;;;;4952073;28;100669;-71
2022/03/09 03:59:24;;;;;;;68.22;28.90;;;;;;;;;;4985066;28;99862;-71
2022/03/09 04:01:50;;;;;;;58.33;23.48;;;;;;;;;;4969767;28;99996;-71
2022/03/09 04:04:18;;;;;;;73.45;29.83;;;;;;;;;;4984422;28;100397;-71
2022/03/09 04:06:44;;;;;;;67.55;27.77;;;;;;;;;;4968256;28;100571;-71
2022/03/09 04:09:11;;;;;;;53.95;23.95;;;;;;;;;;4968536;28;100073;-71
2022/03/09 04:11:38;;;;;;;46.63;19.98;;;;;;;;;;4951971;28;99956;-71
2022/03/09 04:14:05;;;;;;;54.92;24.50;;;;;;;;;;4963741;28;100685;-71
2022/03/09 04:16:32;;;;;;;60.35;26.35;;;;;;;;;;4967915;28;100594;-72
2022/03/09 04:18:59;;;;;;;63.45;23.70;;;;;;;;;;4969257;28;100013;-71
2022/03/09 04:21:26;;;;;;;63.33;26.60;;;;;;;;;;4968865;28;100183;-71
2022/03/09 04:23:52;;;;;;;50.80;20.75;;;;;;;;;;4968161;28;103241;-71
2022/03/09 04:26:19;;;;;;;53.35;21.73;;;;;;;;;;4968052;28;100642;-71
2022/03/09 04:28:46;;;;;;;44.08;19.42;;;;;;;;;;4969236;28;100029;-71
2022/03/09 04:31:13;;;;;;;64.35;27.55;;;;;;;;;;4967838;28;100041;-71
2022/03/09 04:33:40;;;;;;;62.40;27.73;;;;;;;;;;4968240;28;100892;-71
2022/03/09 04:36:09;;;;;;;66.22;27.05;;;;;;;;;;4968765;28;100736;-71
2022/03/09 04:38:36;;;;;;;59.05;25.48;;;;;;;;;;4968208;28;100044;-70
2022/03/09 04:41:03;;;;;;;48.97;21.70;;;;;;;;;;4969116;28;99883;-71
2022/03/09 04:43:30;;;;;;;47.28;19.08;;;;;;;;;;4954410;28;100236;-71
2022/03/09 04:45:57;;;;;;;49.58;18.25;;;;;;;;;;4954527;28;100537;-71
2022/03/09 04:48:24;;;;;;;55.15;19.85;;;;;;;;;;4971313;28;100048;-71
2022/03/09 04:50:50;;;;;;;52.60;21.70;;;;;;;;;;4952447;28;100079;-71
2022/03/09 04:53:17;;;;;;;56.35;24.75;;;;;;;;;;4970676;28;101522;-71
2022/03/09 04:55:44;;;;;;;54.30;21.98;;;;;;;;;;4972043;28;100544;-71
2022/03/09 04:58:13;;;;;;;59.83;24.23;;;;;;;;;;4971606;28;99833;-71
2022/03/09 05:00:40;;;;;;;50.05;21.15;;;;;;;;;;4954837;28;100011;-71
2022/03/09 05:03:07;;;;;;;49.75;21.70;;;;;;;;;;4972046;28;100138;-71
2022/03/09 05:05:35;;;;;;;50.65;21.55;;;;;;;;;;4970747;28;100931;-71
2022/03/09 05:08:01;;;;;;;46.78;20.27;;;;;;;;;;4971971;28;100061;-71
2022/03/09 05:10:31;;;;;;;39.10;17.83;;;;;;;;;;4971396;28;100052;-71
2022/03/09 05:12:58;;;;;;;48.70;22.33;;;;;;;;;;4952458;28;100770;-71
2022/03/09 05:15:25;;;;;;;39.58;17.70;;;;;;;;;;4954514;28;100613;-71
2022/03/09 05:17:52;;;;;;;51.88;22.77;;;;;;;;;;4972110;28;100108;-72
2022/03/09 05:20:20;;;;;;;48.00;20.30;;;;;;;;;;4971723;28;99864;-75
2022/03/09 05:22:49;;;;;;;53.22;22.05;;;;;;;;;;4970174;28;100309;-71
2022/03/09 05:25:16;;;;;;;31.95;14.65;;;;;;;;;;4971566;28;101124;-72
2022/03/09 05:27:43;;;;;;;41.80;18.48;;;;;;;;;;4970718;28;100110;-71
2022/03/09 05:30:10;;;;;;;40.97;19.73;;;;;;;;;;4970421;28;100110;-71
2022/03/09 05:32:38;;;;;;;48.33;22.25;;;;;;;;;;4970008;28;100185;-71
2022/03/09 05:35:05;;;;;;;37.88;17.58;;;;;;;;;;4954278;28;100582;-71
2022/03/09 05:37:37;;;;;;;40.53;17.98;;;;;;;;;;4969948;28;100168;-71
2022/03/09 05:40:04;;;;;;;44.67;17.15;;;;;;;;;;4954648;28;100173;-71
2022/03/09 05:42:31;;;;;;;40.10;17.98;;;;;;;;;;4937925;28;101608;-71
2022/03/09 05:44:58;;;;;;;36.80;18.98;;;;;;;;;;4970768;28;99965;-72
2022/03/09 05:47:45;;;;;;;39.22;16.33;;;;;;;;;;4970130;28;101286;-71
2022/03/09 05:50:12;;;;;;;40.03;16.55;;;;;;;;;;4971160;28;99819;-71
2022/03/09 05:52:39;;;;;;;55.78;24.80;;;;;;;;;;4969663;28;100257;-72
2022/03/09 05:55:06;;;;;;;52.53;22.63;;;;;;;;;;4969666;28;101080;-71
2022/03/09 05:57:33;;;;;;;39.55;17.83;;;;;;;;;;4971206;28;100051;-71
2022/03/09 06:00:01;;;;;;;42.75;18.70;;;;;;;;;;4971198;28;99927;-72
2022/03/09 06:02:37;;;;;;;42.90;18.70;;;;;;;;;;4969821;28;100328;-72
2022/03/09 06:05:04;;;;;;;37.47;16.08;;;;;;;;;;4969620;28;100562;-72
2022/03/09 06:07:32;;;;;;;49.80;20.30;;;;;;;;;;4968986;28;100221;-72
2022/03/09 06:09:59;;;;;;;49.67;20.23;;;;;;;;;;4969862;28;99925;-72
2022/03/09 06:12:26;;;;;;;37.70;17.55;;;;;;;;;;4969176;28;100123;-70
2022/03/09 06:14:55;;;;;;;44.30;20.75;;;;;;;;;;4969589;28;100893;-72
2022/03/09 06:17:21;;;;;;;38.63;17.60;;;;;;;;;;4954082;28;100265;-70
2022/03/09 06:19:51;;;;;;;38.80;17.75;;;;;;;;;;4969497;28;100052;-72
2022/03/09 06:22:18;;;;;;;48.85;22.52;;;;;;;;;;4970745;28;101416;-71
2022/03/09 06:24:44;;;;;;;52.10;22.67;;;;;;;;;;4953447;28;102770;-71
2022/03/09 06:27:11;;;;;;;52.72;23.92;;;;;;;;;;4969873;28;100033;-70
2022/03/09 06:29:38;;;;;;;43.35;21.10;;;;;;;;;;4970999;28;100072;-71
2022/03/09 06:32:05;;;;;;;48.85;19.58;;;;;;;;;;4970369;28;100279;-71
2022/03/09 06:34:32;;;;;;;55.72;21.35;;;;;;;;;;4969346;28;100681;-70
2022/03/09 06:36:59;;;;;;;44.55;19.50;;;;;;;;;;4970188;28;100219;-71
2022/03/09 06:39:26;;;;;;;49.60;20.63;;;;;;;;;;4968761;28;100341;-71
2022/03/09 06:41:53;;;;;;;44.10;21.33;;;;;;;;;;4969277;28;100661;-71
2022/03/09 06:44:22;;;;;;;50.65;23.23;;;;;;;;;;4968924;28;103505;-72
2022/03/09 06:46:49;;;;;;;50.78;21.48;;;;;;;;;;4969295;28;100173;-72
2022/03/09 06:49:16;;;;;;;50.97;24.65;;;;;;;;;;4953096;28;99965;-72
2022/03/09 06:51:43;;;;;;;39.53;19.60;;;;;;;;;;4968186;28;100292;-73
2022/03/09 06:54:10;;;;;;;40.95;17.85;;;;;;;;;;4937169;28;100757;-72
2022/03/09 06:56:37;;;;;;;43.38;19.90;;;;;;;;;;4963362;28;100035;-72
2022/03/09 06:59:15;;;;;;;50.05;20.90;;;;;;;;;;4969530;28;100022;-74
2022/03/09 07:01:42;;;;;;;54.40;21.95;;;;;;;;;;4968051;28;100118;-70
2022/03/09 07:04:09;;;;;;;50.78;19.55;;;;;;;;;;4969792;28;100571;-70
2022/03/09 07:06:37;;;;;;;61.08;23.35;;;;;;;;;;4968984;28;99830;-70
2022/03/09 07:09:04;;;;;;;48.33;21.55;;;;;;;;;;4968756;28;100570;-70
2022/03/09 07:11:31;;;;;;;54.35;22.90;;;;;;;;;;4968488;28;100401;-71
2022/03/09 07:13:58;;;;;;;49.05;21.45;;;;;;;;;;4968793;28;100635;-71
2022/03/09 07:16:25;;;;;;;41.03;18.52;;;;;;;;;;4968767;28;100120;-72
2022/03/09 07:18:52;;;;;;;47.35;22.75;;;;;;;;;;4985877;28;99976;-72
2022/03/09 07:21:19;;;;;;;38.20;17.23;;;;;;;;;;4968754;28;100051;-72
2022/03/09 07:23:46;;;;;;;50.58;20.50;;;;;;;;;;4962736;28;100650;-72
2022/03/09 07:26:13;;;;;;;39.30;17.48;;;;;;;;;;4952144;28;100039;-72
2022/03/09 07:28:40;;;;;;;42.50;21.20;;;;;;;;;;4968292;28;100828;-72
2022/03/09 07:31:06;;;;;;;47.60;20.15;;;;;;;;;;4969945;28;100358;-72
2022/03/09 07:33:33;;;;;;;33.97;16.35;;;;;;;;;;4967456;28;100719;-71
2022/03/09 07:36:01;;;;;;;37.20;16.92;;;;;;;;;;4952445;28;100539;-71
2022/03/09 07:38:29;;;;;;;43.13;17.52;;;;;;;;;;4984805;28;100617;-72
2022/03/09 07:40:59;;;;;;;29.65;14.45;;;;;;;;;;4968207;28;100266;-72
2022/03/09 07:43:26;;;;;;;40.65;18.65;;;;;;;;;;4949563;28;101787;-72
2022/03/09 07:45:52;;;;;;;35.47;17.02;;;;;;;;;;4964160;28;100299;-72
2022/03/09 07:48:19;;;;;;;47.83;21.27;;;;;;;;;;4951952;28;100199;-72
2022/03/09 07:50:46;;;;;;;41.55;19.92;;;;;;;;;;4966923;28;100962;-72
2022/03/09 07:53:13;;;;;;;42.55;21.13;;;;;;;;;;4968351;28;100535;-72
2022/03/09 07:55:40;;;;;;;55.38;22.73;;;;;;;;;;4936214;28;100188;-72
2022/03/09 07:58:07;;;;;;;44.95;21.58;;;;;;;;;;4966757;28;100064;-72
2022/03/09 08:00:34;;;;;;;41.67;17.90;;;;;;;;;;4969242;28;100154;-72
2022/03/09 08:03:01;;;;;;;41.08;19.80;;;;;;;;;;4967793;28;101123;-72
2022/03/09 08:05:48;;;;;;;43.88;18.77;;;;;;;;;;4969585;28;101468;-72
2022/03/09 08:08:14;;;;;;;39.55;17.20;;;;;;;;;;4969520;28;99978;-72
2022/03/09 08:10:41;;;;;;;45.83;20.88;;;;;;;;;;4965255;28;100854;-72
2022/03/09 08:13:08;;;;;;;41.50;20.95;;;;;;;;;;4968762;28;100596;-73
2022/03/09 08:15:37;;;;;;;42.10;18.80;;;;;;;;;;4967930;28;100019;-72
2022/03/09 08:18:04;;;;;;;38.28;17.02;;;;;;;;;;4971995;28;100060;-72
2022/03/09 08:20:31;;;;;;;38.97;18.73;;;;;;;;;;4953939;28;101505;-71
2022/03/09 08:22:57;;;;;;;43.00;19.58;;;;;;;;;;4968077;28;100683;-71
2022/03/09 08:25:25;;;;;;;29.05;14.60;;;;;;;;;;4972953;28;100080;-71
2022/03/09 08:27:52;;;;;;;41.53;16.95;;;;;;;;;;4970554;28;99975;-72
2022/03/09 08:30:19;;;;;;;34.67;15.98;;;;;;;;;;4972500;28;100857;-71
2022/03/09 08:32:46;;;;;;;34.33;15.55;;;;;;;;;;4971601;28;100591;-72
2022/03/09 08:35:13;;;;;;;40.80;18.20;;;;;;;;;;4970727;28;100166;-73
2022/03/09 08:37:40;;;;;;;29.85;14.40;;;;;;;;;;4969672;28;100066;-75
2022/03/09 08:40:08;;;;;;;33.72;14.25;;;;;;;;;;4953402;28;100845;-72
2022/03/09 08:42:34;;;;;;;27.92;13.05;;;;;;;;;;4970372;28;100598;-72
2022/03/09 08:45:01;;;;;;;26.27;12.48;;;;;;;;;;4954376;28;100209;-72
2022/03/09 08:47:28;;;;;;;22.00;10.43;;;;;;;;;;4954477;28;100173;-72
2022/03/09 08:49:57;;;;;;;24.98;11.43;;;;;;;;;;4954694;28;100277;-72
2022/03/09 08:52:44;;;;;;;18.92;9.55;;;;;;;;;;4970763;28;100619;-72
2022/03/09 08:55:11;;;;;;;22.83;10.07;;;;;;;;;;4970988;28;100144;-72
2022/03/09 08:57:38;;;;;;;23.02;9.05;;;;;;;;;;4984362;28;99996;-72
2022/03/09 09:00:07;;;;;;;16.02;8.57;;;;;;;;;;4971619;28;100422;-72
2022/03/09 09:02:33;;;;;;;21.20;9.00;;;;;;;;;;4970651;28;100868;-72
2022/03/09 09:05:01;;;;;;;16.60;9.15;;;;;;;;;;4954278;28;100191;-72
2022/03/09 09:07:27;;;;;;;20.25;8.52;;;;;;;;;;4953608;28;99993;-72
2022/03/09 09:09:55;;;;;;;23.55;9.93;;;;;;;;;;4970079;28;100891;-72
2022/03/09 09:12:25;;;;;;;21.65;10.05;;;;;;;;;;4954421;28;101478;-72
2022/03/09 09:14:51;;;;;;;23.50;10.07;;;;;;;;;;4971987;28;100018;-71
2022/03/09 09:17:18;;;;;;;20.33;9.43;;;;;;;;;;4966599;28;100019;-71
2022/03/09 09:20:03;;;;;;;24.05;10.48;;;;;;;;;;4970183;28;100130;-72
2022/03/09 09:22:30;;;;;;;20.08;10.68;;;;;;;;;;4969387;28;101201;-72
2022/03/09 09:25:17;;;;;;;24.60;10.73;;;;;;;;;;4969765;28;101624;-71
2022/03/09 09:27:44;;;;;;;25.50;11.25;;;;;;;;;;4970657;28;99910;-72
2022/03/09 09:30:14;;;;;;;22.60;10.38;;;;;;;;;;4953186;28;100144;-71
2022/03/09 09:32:41;;;;;;;22.58;10.10;;;;;;;;;;4968659;28;100629;-73
2022/03/09 09:35:11;;;;;;;22.83;11.82;;;;;;;;;;4967196;28;100639;-72
2022/03/09 09:37:38;;;;;;;25.10;12.02;;;;;;;;;;4985552;28;100179;-71
2022/03/09 09:40:09;;;;;;;22.20;10.27;;;;;;;;;;4969857;28;100745;-72
2022/03/09 09:42:36;;;;;;;25.88;11.52;;;;;;;;;;4969364;28;100763;-72
2022/03/09 09:45:19;;;;;;;25.85;10.30;;;;;;;;;;4953962;28;100142;-71
2022/03/09 09:47:49;;;;;;;23.27;10.93;;;;;;;;;;4969587;28;100148;-73
2022/03/09 09:50:17;;;;;;;24.10;10.30;;;;;;;;;;4947403;28;100147;-72
2022/03/09 09:52:44;;;;;;;24.88;11.27;;;;;;;;;;4952610;28;101768;-72
2022/03/09 09:55:12;;;;;;;29.23;11.80;;;;;;;;;;4968383;28;100078;-73
2022/03/09 09:57:39;;;;;;;25.73;11.52;;;;;;;;;;4984787;28;100182;-72
2022/03/09 10:00:07;;;;;;;22.27;10.32;;;;;;;;;;4936251;28;103680;-73
2022/03/09 10:02:43;;;;;;;21.83;10.98;;;;;;;;;;4952953;28;100837;-73
2022/03/09 10:05:16;;;;;;;25.92;10.65;;;;;;;;;;4969389;28;100041;-73
2022/03/09 10:08:05;;;;;;;22.00;10.15;;;;;;;;;;4967662;28;100333;-76
2022/03/09 10:10:36;;;;;;;21.58;9.63;;;;;;;;;;4968645;28;100400;-72
2022/03/09 10:13:16;;;;;;;22.15;10.15;;;;;;;;;;4967837;28;100686;-72
2022/03/09 10:16:07;;;;;;;23.73;9.93;;;;;;;;;;4952542;28;100246;-72
2022/03/09 10:18:34;;;;;;;19.95;8.63;;;;;;;;;;4970478;28;100184;-72
2022/03/09 10:21:12;;;;;;;22.23;10.00;;;;;;;;;;4950806;28;100711;-73
2022/03/09 10:23:51;;;;;;;20.10;10.10;;;;;;;;;;4967849;28;101112;-73
2022/03/09 10:26:18;;;;;;;19.63;9.50;;;;;;;;;;4969632;28;102082;-73
2022/03/09 10:28:59;;;;;;;15.60;6.82;;;;;;;;;;4968940;28;100267;-73
2022/03/09 10:31:49;;;;;;;22.17;9.07;;;;;;;;;;4968382;28;100258;-73
2022/03/09 10:34:19;;;;;;;20.40;8.90;;;;;;;;;;4949529;28;101233;-72
2022/03/09 10:36:54;;;;;;;18.95;8.15;;;;;;;;;;4968757;28;100055;-71
2022/03/09 10:39:22;;;;;;;22.48;9.23;;;;;;;;;;4950371;28;100075;-72
2022/03/09 10:41:49;;;;;;;19.58;9.13;;;;;;;;;;4967593;28;100809;-70
2022/03/09 10:44:16;;;;;;;16.98;8.15;;;;;;;;;;4965915;28;100800;-71
2022/03/09 10:46:47;;;;;;;19.38;8.23;;;;;;;;;;4968110;28;100061;-70
2022/03/09 10:49:18;;;;;;;21.73;9.15;;;;;;;;;;4935153;28;100048;-70
2022/03/09 10:51:50;;;;;;;23.77;9.68;;;;;;;;;;4949226;28;100139;-71
2022/03/09 10:54:19;;;;;;;20.77;9.60;;;;;;;;;;4949803;28;100596;-70
2022/03/09 10:56:46;;;;;;;17.40;9.65;;;;;;;;;;4967880;28;100108;-72
2022/03/09 10:59:14;;;;;;;20.02;9.52;;;;;;;;;;4966733;28;100150;-71
2022/03/09 11:01:42;;;;;;;20.52;9.77;;;;;;;;;;4967659;28;100270;-70
2022/03/09 11:04:12;;;;;;;19.00;9.45;;;;;;;;;;4935588;28;103396;-71
2022/03/09 11:06:46;;;;;;;22.38;9.27;;;;;;;;;;4952376;28;100041;-71
2022/03/09 11:09:14;;;;;;;19.92;8.48;;;;;;;;;;4967961;28;100133;-71
2022/03/09 11:11:42;;;;;;;20.80;9.60;;;;;;;;;;4951765;28;100204;-71
2022/03/09 11:14:10;;;;;;;21.13;8.93;;;;;;;;;;4951405;28;100666;-71
2022/03/09 11:16:37;;;;;;;22.65;9.38;;;;;;;;;;4968474;28;101891;-71
2022/03/09 11:19:04;;;;;;;22.85;10.23;;;;;;;;;;4967909;28;100175;-71
2022/03/09 11:21:32;;;;;;;16.23;8.00;;;;;;;;;;4968027;28;100279;-72
2022/03/09 11:23:59;;;;;;;16.20;8.05;;;;;;;;;;4968308;28;102655;-71
2022/03/09 11:26:27;;;;;;;18.48;8.98;;;;;;;;;;4966672;28;100150;-71
2022/03/09 11:29:04;;;;;;;21.40;8.55;;;;;;;;;;4952512;28;100073;-71
2022/03/09 11:32:05;;;;;;;18.95;8.20;;;;;;;;;;4965610;28;100143;-72
2022/03/09 11:34:45;;;;;;;17.60;8.43;;;;;;;;;;4964457;28;100654;-71
2022/03/09 11:37:13;;;;;;;19.70;8.23;;;;;;;;;;4968139;28;101230;-71
2022/03/09 11:39:44;;;;;;;18.83;8.13;;;;;;;;;;4967869;28;100196;-71
2022/03/09 11:42:33;;;;;;;24.67;8.48;;;;;;;;;;4965395;28;100112;-71
2022/03/09 11:45:29;;;;;;;19.65;7.72;;;;;;;;;;4968302;28;102050;-74
2022/03/09 11:48:01;;;;;;;21.70;9.45;;;;;;;;;;4967881;28;100174;-71
2022/03/09 11:50:29;;;;;;;18.48;8.02;;;;;;;;;;4968941;28;100128;-70
2022/03/09 11:53:06;;;;;;;14.93;7.10;;;;;;;;;;4968310;28;100439;-71
2022/03/09 11:55:34;;;;;;;14.07;7.18;;;;;;;;;;4969320;28;101194;-70
2022/03/09 11:58:11;;;;;;;17.73;8.50;;;;;;;;;;4951161;28;100415;-71
2022/03/09 12:01:01;;;;;;;17.23;7.88;;;;;;;;;;4967000;28;100754;-71
2022/03/09 12:03:41;;;;;;;18.23;8.48;;;;;;;;;;4967045;28;100517;-71
2022/03/09 12:06:43;;;;;;;18.40;8.90;;;;;;;;;;4950780;28;100641;-71
2022/03/09 12:09:10;;;;;;;17.83;7.97;;;;;;;;;;4966602;28;100691;-72
2022/03/09 12:12:05;;;;;;;16.65;8.77;;;;;;;;;;4950372;28;100108;-72
2022/03/09 12:15:01;;;;;;;15.60;7.43;;;;;;;;;;4966791;28;102381;-72
2022/03/09 12:17:30;;;;;;;20.90;9.38;;;;;;;;;;4965879;28;100772;-71
2022/03/09 12:20:19;;;;;;;12.05;6.63;;;;;;;;;;4951157;28;100267;-71
2022/03/09 12:22:56;;;;;;;20.67;8.98;;;;;;;;;;4967523;28;100173;-71
2022/03/09 12:25:36;;;;;;;15.93;8.18;;;;;;;;;;4968004;28;100637;-71
2022/03/09 12:28:28;;;;;;;22.02;8.40;;;;;;;;;;4966394;28;101190;-71
2022/03/09 12:31:14;;;;;;;19.42;8.40;;;;;;;;;;4968087;28;100732;-71
2022/03/09 12:33:42;;;;;;;22.48;8.90;;;;;;;;;;4963535;28;100264;-72
2022/03/09 12:36:18;;;;;;;17.98;8.18;;;;;;;;;;4965331;28;100317;-71
2022/03/09 12:39:05;;;;;;;16.15;7.05;;;;;;;;;;4950369;28;100754;-72
2022/03/09 12:41:36;;;;;;;16.55;8.23;;;;;;;;;;4967921;28;100438;-73
2022/03/09 12:44:06;;;;;;;17.92;8.10;;;;;;;;;;4967463;28;100038;-72
2022/03/09 12:46:35;;;;;;;16.77;7.80;;;;;;;;;;4967035;28;101497;-71
2022/03/09 12:49:07;;;;;;;16.38;8.27;;;;;;;;;;4965660;28;100602;-72
2022/03/09 12:51:34;;;;;;;25.98;10.45;;;;;;;;;;4966782;28;100292;-72
2022/03/09 12:54:33;;;;;;;17.98;8.88;;;;;;;;;;4966886;28;100279;-71
2022/03/09 12:57:25;;;;;;;18.02;8.48;;;;;;;;;;4966959;28;100229;-72
2022/03/09 12:59:56;;;;;;;21.42;9.60;;;;;;;;;;4968269;28;101898;-72
2022/03/09 13:02:23;;;;;;;14.90;8.02;;;;;;;;;;4967940;28;100257;-71
2022/03/09 13:05:01;;;;;;;17.90;8.93;;;;;;;;;;4971388;28;101594;-73
2022/03/09 13:07:29;;;;;;;24.65;8.93;;;;;;;;;;4970447;28;100796;-73
2022/03/09 13:10:21;;;;;;;15.23;7.80;;;;;;;;;;4970248;28;101801;-72
2022/03/09 13:12:59;;;;;;;17.77;8.75;;;;;;;;;;4956109;28;100189;-73
2022/03/09 13:15:35;;;;;;;15.70;6.85;;;;;;;;;;4971218;28;100426;-71
2022/03/09 13:18:02;;;;;;;16.63;8.60;;;;;;;;;;4970690;28;100422;-71
2022/03/09 13:20:29;;;;;;;15.35;7.25;;;;;;;;;;4953351;28;103012;-70
2022/03/09 13:22:56;;;;;;;19.70;7.85;;;;;;;;;;4969543;28;100134;-73
2022/03/09 13:25:32;;;;;;;17.42;8.02;;;;;;;;;;4969355;28;100047;-70
2022/03/09 13:28:05;;;;;;;19.60;8.73;;;;;;;;;;4953916;28;101461;-71
2022/03/09 13:30:32;;;;;;;17.88;9.18;;;;;;;;;;4969721;28;101910;-71
2022/03/09 13:33:12;;;;;;;17.88;8.60;;;;;;;;;;4954226;28;101356;-72
2022/03/09 13:35:46;;;;;;;17.52;8.48;;;;;;;;;;4969613;28;100206;-73
2022/03/09 13:38:19;;;;;;;;;;;;;;;;;;4954151;28;100707;-72
2022/03/09 13:40:46;;;;;;;14.65;8.05;;;;;;;;;;4970176;28;101129;-72
2022/03/09 13:43:13;;;;;;;13.63;7.00;;;;;;;;;;4986686;28;100527;-72
2022/03/09 13:45:41;;;;;;;17.23;7.78;;;;;;;;;;4971117;28;100072;-73
2022/03/09 13:48:08;;;;;;;15.50;7.70;;;;;;;;;;4969025;28;99977;-72
2022/03/09 13:50:36;;;;;;;20.33;7.65;;;;;;;;;;4979081;28;100554;-72
2022/03/09 13:53:06;;;;;;;16.73;7.72;;;;;;;;;;4970184;28;100127;-72
2022/03/09 13:55:50;;;;;;;16.90;7.85;;;;;;;;;;4969760;28;100082;-72
2022/03/09 13:58:18;;;;;;;18.52;7.82;;;;;;;;;;4969145;28;100782;-72
2022/03/09 14:00:46;;;;;;;15.75;7.47;;;;;;;;;;4968409;28;100809;-72
2022/03/09 14:03:21;;;;;;;16.13;6.95;;;;;;;;;;4936342;28;100224;-72
2022/03/09 14:05:49;;;;;;;13.43;6.57;;;;;;;;;;4969141;28;100172;-72
2022/03/09 14:08:29;;;;;;;23.70;8.38;;;;;;;;;;4952096;28;100838;-72
2022/03/09 14:11:26;;;;;;;14.20;6.97;;;;;;;;;;4968882;28;100649;-72
2022/03/09 14:14:04;;;;;;;18.38;8.27;;;;;;;;;;4965970;28;100300;-72
2022/03/09 14:16:34;;;;;;;16.75;8.00;;;;;;;;;;4953107;28;100140;-72
2022/03/09 14:19:04;;;;;;;19.20;8.45;;;;;;;;;;4969129;28;102267;-72
2022/03/09 14:21:31;;;;;;;12.80;5.85;;;;;;;;;;4968022;28;101227;-72
2022/03/09 14:23:58;;;;;;;12.98;5.95;;;;;;;;;;4953457;28;100093;-72
2022/03/09 14:26:29;;;;;;;13.77;6.05;;;;;;;;;;4969297;28;100174;-72
2022/03/09 14:28:56;;;;;;;14.43;6.28;;;;;;;;;;4968678;28;100242;-72
2022/03/09 14:31:23;;;;;;;13.70;6.35;;;;;;;;;;4952410;28;100574;-72